Warfield, Kentucky
Current Conditions -  °F | °C
As of 12:15 PM on Thursday 18 Dec 2014 (Local Time) from KSJS Reporting Station
Overcast Overcast  
Wind Chill: 33°   Ceiling: 2000
Heat Index: 33°   Visibility: 10mi
Dew Point: 25°   Wind: 3mph
Humidity: 74%   Direction: 340°NNW
Pressure: 30.22"   Gusts: NA
Location:  37.84°N, 82.42°W
Report Text: KSJS 181715Z AUTO 34003KT 10SM OVC020 00/M04 A3022 RMK AO2 T00041037
Loading
Personal Weather Stations






























Interactive Weather Map New forecast layout! Learn more

10-Day Weather Forecast

Advertisements
Track Severe Weather on mobile